HEMM

Mersa Matruh Airport

Mersa Matruh, Egypt
METAR HEMM 162300Z 20010KT CAVOK 13/08 Q1020 NOSIG
Observed Flight Rules
Dec-16 @ 23:00 UTC (2 hours ago) Visual Flight Rules
Wind Visibility Clouds
200° at 10 knots 10,000+ meters
  • Clear skies
Temperatures Readings
Current 13°C / 55°F
Dewpoint 8°C / 46°F
Humidity 72%
Altimeter 30.12" Hg
Pressure 1020 hPa
Elevation 30
METAR HEMM 162300Z 20010KT CAVOK 13/08 Q1020 NOSIG
Observed Flight Rules
Dec-16 @ 23:00 UTC
(2 hours ago)
VFR
Wind Visibility
200° at 10 knots 10,000+ meters
Clouds
  • Clear skies
Temperature Dewpoint
13°C / 55°F 8°C / 46°F
Humidity Altimeter Pressure
72% 30.12" Hg 1020 hPa